createdAt,value
2023-10-08T10:38:06.721Z,18.10
2023-10-08T10:40:42.565Z,18.10
2023-10-08T10:43:20.203Z,17.70
2023-10-08T10:45:51.652Z,18.30
2023-10-08T10:48:36.505Z,17.80
2023-10-08T10:51:07.612Z,17.80
2023-10-08T10:53:46.215Z,18.20
2023-10-08T10:56:23.858Z,18.60
2023-10-08T10:59:03.275Z,18.80
2023-10-08T11:01:34.115Z,19.70
2023-10-08T11:04:07.672Z,19.80
2023-10-08T11:06:38.974Z,19.70
2023-10-08T11:09:17.360Z,20.00
2023-10-08T11:11:56.947Z,19.20
2023-10-08T11:14:30.792Z,18.70
2023-10-08T11:17:28.277Z,18.60
2023-10-08T11:19:56.383Z,19.20
2023-10-08T11:22:55.111Z,19.70
2023-10-08T11:25:32.537Z,20.70
2023-10-08T11:28:14.188Z,19.30
2023-10-08T11:30:57.482Z,20.00
2023-10-08T11:33:31.174Z,19.50
2023-10-08T11:36:20.207Z,18.70
2023-10-08T11:39:00.445Z,19.10
2023-10-08T11:41:49.856Z,20.70
2023-10-08T11:44:38.337Z,21.10
2023-10-08T11:47:17.780Z,21.10
2023-10-08T11:49:58.815Z,21.40
2023-10-08T11:52:48.237Z,21.10
2023-10-08T11:55:20.234Z,20.80
2023-10-08T11:57:53.905Z,20.70
2023-10-08T12:00:32.732Z,20.80
2023-10-08T12:03:05.363Z,20.10
2023-10-08T12:05:35.812Z,18.80
2023-10-08T12:08:20.297Z,19.60
2023-10-08T12:55:10.952Z,15.60
2023-10-08T12:57:59.129Z,15.60
2023-10-08T13:00:34.202Z,14.70
2023-10-08T13:03:06.833Z,13.90
2023-10-08T13:05:41.906Z,14.00
2023-10-08T13:08:16.079Z,13.70
2023-10-08T13:10:48.248Z,13.30
2023-10-08T13:13:22.656Z,13.40
2023-10-08T13:15:57.721Z,13.30
2023-10-08T13:18:29.557Z,13.30
2023-10-08T13:21:02.465Z,13.30
2023-10-08T13:23:36.792Z,13.10
2023-10-08T13:26:18.866Z,12.90
2023-10-08T13:28:49.854Z,13.20
2023-10-08T13:31:24.510Z,13.30
2023-10-08T13:34:07.701Z,13.60
2023-10-08T13:36:49.911Z,13.30
2023-10-08T13:39:30.032Z,13.20
2023-10-08T13:42:06.810Z,13.00
2023-10-08T13:44:39.996Z,12.80
2023-10-08T13:47:09.224Z,12.80
2023-10-08T13:49:42.353Z,12.50
2023-10-08T13:52:13.035Z,12.80
2023-10-08T13:54:48.429Z,12.90
2023-10-08T13:57:23.542Z,13.10
2023-10-08T13:59:53.402Z,13.30
2023-10-08T14:02:22.818Z,13.00
2023-10-08T14:05:01.532Z,13.00
2023-10-08T14:07:29.929Z,12.80
2023-10-08T14:10:09.894Z,12.70
2023-10-08T14:12:48.133Z,12.60
2023-10-08T14:15:19.005Z,12.40
2023-10-08T14:18:10.412Z,12.50
2023-10-08T14:20:42.357Z,12.70
2023-10-08T14:23:14.097Z,12.70
2023-10-08T14:26:03.955Z,12.60
2023-10-08T14:28:42.974Z,12.70
2023-10-08T14:31:18.309Z,12.80
2023-10-08T14:34:09.989Z,12.30
2023-10-08T14:36:57.926Z,12.60
2023-10-08T14:39:47.704Z,12.20
2023-10-08T14:42:35.799Z,12.10
2023-10-08T14:45:03.835Z,11.90
2023-10-08T14:47:40.846Z,11.80
2023-10-08T14:50:17.756Z,11.90
2023-10-08T14:52:48.304Z,11.80
2023-10-08T14:55:17.229Z,11.80
2023-10-08T14:57:49.877Z,11.80
2023-10-08T15:00:18.124Z,11.70
2023-10-08T15:03:13.325Z,11.60
2023-10-08T15:05:48.534Z,11.50
2023-10-08T15:08:33.528Z,11.60
2023-10-08T15:14:10.908Z,11.50
2023-10-08T15:16:41.569Z,11.40
2023-10-08T15:19:13.562Z,11.10
2023-10-08T15:21:54.972Z,11.30
2023-10-08T15:24:23.308Z,11.30
2023-10-08T15:26:54.956Z,11.30
2023-10-08T15:29:30.666Z,11.20
2023-10-08T15:34:44.853Z,11.40
2023-10-08T15:37:14.953Z,11.20
2023-10-08T15:39:43.578Z,11.10
2023-10-08T15:42:14.931Z,11.10
2023-10-08T15:44:46.177Z,11.00
2023-10-08T15:47:14.249Z,10.90
2023-10-08T15:49:46.940Z,10.80
2023-10-08T15:52:24.904Z,10.80
2023-10-08T15:55:03.038Z,11.00
2023-10-08T15:57:44.045Z,10.80
2023-10-08T16:00:15.160Z,10.60
2023-10-08T16:02:47.271Z,10.50
2023-10-08T16:05:19.815Z,10.30
2023-10-08T16:07:47.822Z,10.40
2023-10-08T16:10:28.651Z,10.20
2023-10-08T16:13:08.542Z,10.20
2023-10-08T16:15:36.635Z,10.30
2023-10-08T16:18:04.770Z,10.00
2023-10-08T16:20:36.031Z,9.90
2023-10-08T16:23:06.463Z,9.90
2023-10-08T16:25:34.152Z,9.80
2023-10-08T16:28:03.607Z,9.90
2023-10-08T16:30:34.731Z,9.80
2023-10-08T16:33:09.294Z,9.90
2023-10-08T16:35:38.736Z,9.70
2023-10-08T16:38:07.786Z,9.60
2023-10-08T19:44:47.596Z,7.30
2023-10-08T19:48:14.301Z,7.20
2023-10-08T19:54:12.381Z,7.40
2023-10-08T19:56:42.160Z,7.00
2023-10-08T19:59:16.492Z,6.80
2023-10-08T20:12:16.180Z,6.90
2023-10-08T20:56:51.147Z,6.20
2023-10-08T20:59:28.701Z,6.00
2023-10-08T21:08:38.768Z,5.80
2023-10-08T21:11:17.996Z,5.90
2023-10-08T21:13:48.112Z,5.60
2023-10-08T21:16:28.743Z,5.80
2023-10-08T21:19:16.522Z,5.70
2023-10-08T21:21:53.074Z,5.70
2023-10-08T21:24:26.222Z,5.80
2023-10-08T21:26:56.771Z,5.50
2023-10-08T21:29:30.280Z,5.40
2023-10-08T21:32:12.563Z,5.20
2023-10-08T21:34:55.842Z,5.20
2023-10-08T21:37:24.438Z,5.30
2023-10-08T21:39:55.128Z,5.40
2023-10-08T21:42:32.726Z,4.80
2023-10-08T21:45:02.372Z,5.00
2023-10-08T21:47:33.800Z,5.10
2023-10-08T21:50:10.279Z,5.20
2023-10-08T21:52:39.201Z,5.30
2023-10-08T21:55:10.637Z,5.30
2023-10-08T21:57:38.902Z,5.10
2023-10-08T22:00:24.141Z,5.00
2023-10-08T22:03:11.224Z,5.00
2023-10-08T22:05:46.929Z,4.80
2023-10-08T22:08:17.451Z,4.90
2023-10-08T22:10:53.669Z,5.00
2023-10-08T22:13:22.115Z,5.00
2023-10-08T22:15:57.326Z,5.00
2023-10-08T22:18:33.736Z,4.90
2023-10-08T22:21:12.874Z,5.20
2023-10-08T22:23:41.643Z,5.00
2023-10-08T22:26:17.097Z,5.00
2023-10-08T22:28:55.704Z,5.10
2023-10-08T22:31:29.617Z,4.80
2023-10-08T22:34:06.086Z,4.80
2023-10-08T22:36:43.316Z,4.90
2023-10-08T22:39:17.217Z,4.70
2023-10-08T22:42:04.908Z,4.80
2023-10-08T22:44:39.329Z,4.70
2023-10-08T22:47:11.745Z,4.70
2023-10-08T22:49:57.030Z,4.70
2023-10-08T22:52:28.333Z,4.80
2023-10-08T22:54:59.183Z,4.60
2023-10-08T22:57:30.164Z,4.40
2023-10-08T23:00:13.092Z,4.10
2023-10-08T23:02:42.745Z,4.20
2023-10-08T23:05:16.199Z,4.50
2023-10-08T23:07:47.275Z,4.20
2023-10-08T23:10:16.083Z,4.50
2023-10-08T23:12:49.892Z,4.30
2023-10-08T23:15:20.554Z,4.20
2023-10-08T23:17:50.723Z,4.20
2023-10-08T23:20:49.314Z,4.20
2023-10-08T23:23:32.630Z,4.30
2023-10-08T23:26:03.646Z,4.00
2023-10-08T23:28:39.932Z,4.10
2023-10-08T23:31:10.918Z,4.20
2023-10-08T23:33:53.123Z,4.40
2023-10-08T23:36:42.472Z,4.00
2023-10-08T23:39:19.297Z,4.10
2023-10-08T23:42:05.084Z,4.20
2023-10-08T23:44:37.582Z,4.30
2023-10-08T23:47:16.483Z,4.30
2023-10-08T23:50:12.684Z,4.30
2023-10-08T23:52:54.546Z,4.30
2023-10-08T23:55:27.535Z,4.20
2023-10-08T23:58:09.440Z,4.00
